createdAt,value
2022-11-16T00:04:06.689Z,78.40
2022-11-16T00:09:34.138Z,81.20
2022-11-16T00:15:17.306Z,77.60
2022-11-16T00:20:40.634Z,75.20
2022-11-16T00:26:23.279Z,77.80
2022-11-16T00:32:06.872Z,80.20
2022-11-16T00:37:30.756Z,79.90
2022-11-16T00:42:58.754Z,77.70
2022-11-16T00:48:25.477Z,76.70
2022-11-16T00:53:53.015Z,75.20
2022-11-16T00:59:16.279Z,100.00
2022-11-16T01:04:43.098Z,74.40
2022-11-16T01:10:25.985Z,88.90
2022-11-16T01:15:48.923Z,79.50
2022-11-16T01:21:11.419Z,76.50
2022-11-16T01:26:34.646Z,75.40
2022-11-16T01:31:59.884Z,79.30
2022-11-16T01:37:24.040Z,73.90
2022-11-16T01:42:47.151Z,81.40
2022-11-16T01:48:14.749Z,78.40
2022-11-16T01:53:38.426Z,81.90
2022-11-16T01:59:02.924Z,88.00
2022-11-16T02:04:25.235Z,81.90
2022-11-16T02:10:28.421Z,81.60
2022-11-16T02:16:23.834Z,79.20
2022-11-16T02:22:18.231Z,79.50
2022-11-16T02:28:17.864Z,84.50
2022-11-16T02:33:45.589Z,79.20
2022-11-16T02:39:16.526Z,82.40
2022-11-16T02:44:45.753Z,88.70
2022-11-16T02:50:20.067Z,89.00
2022-11-16T02:55:50.144Z,79.50
2022-11-16T03:01:25.752Z,85.60
2022-11-16T03:06:50.485Z,83.70
2022-11-16T03:12:19.190Z,82.90
2022-11-16T03:17:46.343Z,79.20
2022-11-16T03:23:11.869Z,63.80
2022-11-16T03:29:11.568Z,58.90
2022-11-16T03:34:36.975Z,52.80
2022-11-16T03:40:02.708Z,53.90
2022-11-16T03:45:28.415Z,49.50
2022-11-16T03:50:52.704Z,54.30
2022-11-16T03:56:16.463Z,55.10
2022-11-16T04:01:44.362Z,48.90
2022-11-16T04:07:27.533Z,52.70
2022-11-16T04:13:31.370Z,57.10
2022-11-16T04:19:13.010Z,49.20
2022-11-16T04:24:38.847Z,50.10
2022-11-16T04:30:03.447Z,49.80
2022-11-16T04:35:44.960Z,44.20
2022-11-16T04:41:28.292Z,44.10
2022-11-16T04:47:07.577Z,44.60
2022-11-16T04:52:31.427Z,45.80
2022-11-16T04:57:55.261Z,46.20
2022-11-16T05:03:17.757Z,41.60
2022-11-16T05:08:40.581Z,43.40
2022-11-16T05:14:02.673Z,42.20
2022-11-16T05:19:44.133Z,41.90
2022-11-16T05:25:08.527Z,40.50
2022-11-16T05:30:31.058Z,41.40
2022-11-16T05:35:54.859Z,39.90
2022-11-16T05:41:37.894Z,41.30
2022-11-16T05:47:01.292Z,40.10
2022-11-16T05:52:23.903Z,38.70
2022-11-16T05:57:49.128Z,34.80
2022-11-16T06:03:11.470Z,36.40
2022-11-16T06:08:34.674Z,40.50
2022-11-16T06:14:20.024Z,37.20
2022-11-16T06:19:48.348Z,38.90
2022-11-16T06:25:11.521Z,35.20
2022-11-16T06:30:39.437Z,37.50
2022-11-16T06:36:01.722Z,38.90
2022-11-16T06:41:23.672Z,39.30
2022-11-16T06:46:46.053Z,41.70
2022-11-16T06:52:09.091Z,39.50
2022-11-16T06:57:31.112Z,37.10
2022-11-16T07:03:33.577Z,36.60
2022-11-16T07:10:16.753Z,32.80
2022-11-16T07:16:45.336Z,31.50
2022-11-16T07:22:08.804Z,37.60
2022-11-16T07:27:31.816Z,37.50
2022-11-16T07:32:59.863Z,44.60
2022-11-16T07:38:41.847Z,40.20
2022-11-16T07:44:28.840Z,59.80
2022-11-16T07:51:13.858Z,63.70
2022-11-16T07:57:25.163Z,64.80
2022-11-16T08:03:32.631Z,67.40
2022-11-16T08:09:28.175Z,64.10
2022-11-16T08:15:58.688Z,73.90
2022-11-16T08:22:06.087Z,73.20
2022-11-16T08:28:18.442Z,72.60
2022-11-16T08:34:06.385Z,54.00
2022-11-16T08:40:42.695Z,68.60
2022-11-16T08:47:06.079Z,76.10
2022-11-16T08:53:19.347Z,81.50
2022-11-16T08:59:02.196Z,82.60
2022-11-16T09:04:26.118Z,80.30
2022-11-16T09:09:49.288Z,80.80
2022-11-16T09:15:11.554Z,82.10
2022-11-16T09:20:58.035Z,87.60
2022-11-16T09:27:20.338Z,95.50
2022-11-16T09:34:03.802Z,104.10
2022-11-16T09:40:46.842Z,101.00
2022-11-16T09:47:30.056Z,113.90
2022-11-16T09:53:59.540Z,110.90
2022-11-16T09:59:30.480Z,104.30
2022-11-16T10:05:03.393Z,115.30
2022-11-16T10:10:39.168Z,113.10
2022-11-16T10:16:31.379Z,120.90
2022-11-16T10:22:35.838Z,120.20
2022-11-16T10:28:35.355Z,121.30
2022-11-16T10:34:25.348Z,118.50
2022-11-16T10:39:54.310Z,125.90
2022-11-16T10:46:00.463Z,125.80
2022-11-16T10:51:47.577Z,127.90
2022-11-16T10:58:14.914Z,118.70
2022-11-16T11:05:05.818Z,98.20
2022-11-16T11:11:47.570Z,100.40
2022-11-16T11:17:58.840Z,81.20
2022-11-16T11:24:44.313Z,60.40
2022-11-16T11:31:06.558Z,75.50
2022-11-16T11:37:41.606Z,67.40
2022-11-16T11:43:47.451Z,22.40
2022-11-16T11:50:06.698Z,18.60
2022-11-16T11:55:35.949Z,12.00
2022-11-16T12:01:51.687Z,10.90
2022-11-16T12:08:29.134Z,12.40
2022-11-16T12:14:24.710Z,11.80
2022-11-16T12:20:38.567Z,10.10
2022-11-16T12:26:48.646Z,10.70
2022-11-16T12:33:35.462Z,8.60
2022-11-16T12:40:25.018Z,9.80
2022-11-16T12:47:25.326Z,11.50
2022-11-16T12:54:19.698Z,12.30
2022-11-16T13:01:02.532Z,12.00
2022-11-16T13:08:01.303Z,12.90
2022-11-16T13:14:20.497Z,12.10
2022-11-16T13:27:56.105Z,11.90
2022-11-16T13:34:39.428Z,13.10
2022-11-16T13:41:22.950Z,11.00
2022-11-16T13:48:11.618Z,12.80
2022-11-16T13:54:55.382Z,12.10
2022-11-16T14:01:48.762Z,14.60
2022-11-16T14:08:31.848Z,12.30
2022-11-16T14:15:13.351Z,13.50
2022-11-16T14:21:18.670Z,12.50
2022-11-16T14:28:20.952Z,12.00
2022-11-16T14:34:13.489Z,14.40
2022-11-16T14:40:59.463Z,16.00
2022-11-16T14:47:10.101Z,19.00
2022-11-16T14:53:32.983Z,16.30
2022-11-16T15:00:23.087Z,15.80
2022-11-16T15:07:07.636Z,16.40
2022-11-16T15:13:51.327Z,25.50
2022-11-16T15:20:37.779Z,26.60
2022-11-16T16:15:59.345Z,20.70
2022-11-16T16:22:47.512Z,16.50
2022-11-16T16:29:30.821Z,20.20
2022-11-16T16:36:02.522Z,29.30
2022-11-16T16:42:47.002Z,33.30
2022-11-16T16:48:29.768Z,32.80
2022-11-16T16:53:52.925Z,32.90
2022-11-16T16:59:15.383Z,36.40
2022-11-16T17:05:17.969Z,36.20
2022-11-16T17:11:01.837Z,30.50
2022-11-16T17:17:04.134Z,26.90
2022-11-16T17:23:47.284Z,27.80
2022-11-16T17:30:30.736Z,32.20
2022-11-16T17:36:59.074Z,36.60
2022-11-16T17:43:22.240Z,31.40
2022-11-16T17:49:45.696Z,32.30
2022-11-16T17:55:30.185Z,30.40
2022-11-16T18:00:52.799Z,29.20
2022-11-16T18:06:20.043Z,29.90
2022-11-16T18:11:49.040Z,25.20
2022-11-16T18:17:35.057Z,22.80
2022-11-16T18:23:57.238Z,21.40
2022-11-16T18:30:21.846Z,17.30
2022-11-16T18:37:04.706Z,18.80
2022-11-16T18:43:47.546Z,19.00
2022-11-16T18:50:32.114Z,16.30
2022-11-16T18:57:14.873Z,17.00
2022-11-16T19:03:58.220Z,21.50
2022-11-16T19:10:36.960Z,20.60
2022-11-16T19:17:19.935Z,22.00
2022-11-16T19:24:05.786Z,17.20
2022-11-16T19:30:52.043Z,15.50
2022-11-16T19:37:35.405Z,12.80
2022-11-16T19:43:58.575Z,14.30
2022-11-16T19:50:41.857Z,14.30
2022-11-16T19:57:06.466Z,13.90
2022-11-16T20:03:49.796Z,14.10
2022-11-16T20:10:33.340Z,14.30
2022-11-16T20:17:16.446Z,20.10
2022-11-16T20:24:04.676Z,22.40
2022-11-16T20:30:49.327Z,19.00
2022-11-16T20:37:19.183Z,19.40
2022-11-16T20:43:45.998Z,16.50
2022-11-16T20:49:52.221Z,18.70
2022-11-16T20:56:38.743Z,15.90
2022-11-16T21:03:22.200Z,14.90
2022-11-16T21:09:51.931Z,15.00
2022-11-16T21:16:17.167Z,15.20
2022-11-16T21:23:00.636Z,14.00
2022-11-16T21:29:23.166Z,13.40
2022-11-16T21:34:54.465Z,10.00
2022-11-16T21:40:19.479Z,13.20
2022-11-16T21:45:47.355Z,14.10
2022-11-16T21:51:15.523Z,12.80
2022-11-16T21:56:40.693Z,13.10
2022-11-16T22:02:03.471Z,14.70
2022-11-16T22:13:03.352Z,10.90
2022-11-16T22:18:26.654Z,14.30
2022-11-16T22:23:48.907Z,14.00
2022-11-16T22:29:12.726Z,12.70
2022-11-16T22:41:13.205Z,12.90
2022-11-16T22:47:09.279Z,9.60
2022-11-16T22:52:47.192Z,9.60
2022-11-16T22:59:06.669Z,10.40
2022-11-16T23:05:13.306Z,10.80
2022-11-16T23:10:56.338Z,9.10
2022-11-16T23:16:34.157Z,9.50
2022-11-16T23:22:14.581Z,10.50
2022-11-16T23:27:56.935Z,11.70
2022-11-16T23:33:39.422Z,9.10
2022-11-16T23:39:06.833Z,11.00
2022-11-16T23:50:20.070Z,7.80
2022-11-16T23:55:44.335Z,10.00
